Time;durP1;ratioP1;P1;durP2;ratioP2;P2;SDS_P1;SDS_P2;PMS_P1;PMS_P2;Temp;Humidity;BMP_temperature;BMP_pressure;BME280_temperature;BME280_humidity;BME280_pressure;Samples;Min_cycle;Max_cycle;Signal;HPM_P1;HPM_P2
2022/03/16 00:01:59;;;;;;;22.25;13.63;;;3.10;99.90;;;;;;5040584;28;20032;-82
2022/03/16 00:04:27;;;;;;;21.42;12.77;;;3.00;99.90;;;;;;5040784;28;20032;-83
2022/03/16 00:06:52;;;;;;;22.17;13.32;;;3.00;99.90;;;;;;5040125;28;20025;-82
2022/03/16 00:09:18;;;;;;;23.58;12.35;;;3.00;99.90;;;;;;5060145;28;20033;-84
2022/03/16 00:11:44;;;;;;;18.98;12.48;;;2.90;99.90;;;;;;5042333;28;20132;-83
2022/03/16 00:14:11;;;;;;;17.38;12.02;;;2.90;99.90;;;;;;5041439;28;20060;-83
2022/03/16 00:16:37;;;;;;;20.98;12.05;;;2.80;99.90;;;;;;5039515;28;20419;-84
2022/03/16 00:19:03;;;;;;;21.13;12.27;;;2.80;99.90;;;;;;5038994;28;20017;-83
2022/03/16 00:21:28;;;;;;;16.13;11.07;;;2.70;99.90;;;;;;5039358;28;20501;-83
2022/03/16 00:23:54;;;;;;;18.75;12.10;;;2.60;99.90;;;;;;5047270;23;20064;-76
2022/03/16 00:26:19;;;;;;;18.70;12.30;;;2.50;99.90;;;;;;5050954;28;20022;-77
2022/03/16 00:28:45;;;;;;;19.35;11.80;;;2.40;99.90;;;;;;5052234;28;20056;-77
2022/03/16 00:31:11;;;;;;;21.42;11.90;;;2.40;99.90;;;;;;5031724;28;20033;-78
2022/03/16 00:33:36;;;;;;;21.33;12.75;;;2.40;99.90;;;;;;5038593;28;20105;-77
2022/03/16 00:36:02;;;;;;;20.77;12.60;;;2.50;99.90;;;;;;5017435;28;20029;-77
2022/03/16 00:38:28;;;;;;;22.02;12.30;;;2.50;99.90;;;;;;5034464;28;20030;-77
2022/03/16 00:40:54;;;;;;;24.63;12.50;;;2.50;99.90;;;;;;5034373;28;20061;-77
2022/03/16 00:43:20;;;;;;;24.85;14.70;;;2.50;99.90;;;;;;5018326;28;20120;-78
2022/03/16 00:45:45;;;;;;;23.35;13.15;;;2.60;99.90;;;;;;5054202;28;20064;-77
2022/03/16 00:48:11;;;;;;;24.85;15.05;;;2.60;99.90;;;;;;5053912;28;20036;-77
2022/03/16 00:50:37;;;;;;;25.73;14.68;;;2.60;99.90;;;;;;5054436;28;20040;-77
2022/03/16 00:53:02;;;;;;;23.65;14.35;;;2.70;99.90;;;;;;5036441;28;20036;-76
2022/03/16 00:55:28;;;;;;;23.17;14.27;;;2.70;99.90;;;;;;5054201;28;20461;-77
2022/03/16 00:57:53;;;;;;;24.73;15.13;;;2.60;99.90;;;;;;5035403;28;20365;-76
2022/03/16 01:00:19;;;;;;;27.65;15.82;;;2.70;99.90;;;;;;5054309;28;20029;-77
2022/03/16 01:02:44;;;;;;;29.63;17.88;;;2.70;99.90;;;;;;5035920;28;20399;-76
2022/03/16 01:05:11;;;;;;;29.33;16.58;;;2.80;99.90;;;;;;5053929;28;20040;-78
2022/03/16 01:07:36;;;;;;;28.75;15.63;;;2.90;99.90;;;;;;5053914;28;20025;-78
2022/03/16 01:10:03;;;;;;;25.48;14.88;;;2.90;99.90;;;;;;5053952;28;20116;-78
2022/03/16 01:12:29;;;;;;;25.50;15.15;;;2.90;99.90;;;;;;5053873;28;20045;-76
2022/03/16 01:14:54;;;;;;;25.90;13.70;;;2.80;99.90;;;;;;5053740;28;20467;-77
2022/03/16 01:17:20;;;;;;;24.58;14.52;;;2.70;99.90;;;;;;5035522;28;20025;-78
2022/03/16 01:19:45;;;;;;;33.80;15.77;;;2.70;99.90;;;;;;5035829;28;20435;-79
2022/03/16 01:22:11;;;;;;;30.38;14.63;;;2.80;99.90;;;;;;5054410;28;20048;-77
2022/03/16 01:24:37;;;;;;;19.25;13.43;;;2.80;99.90;;;;;;5035402;28;20474;-78
2022/03/16 01:27:03;;;;;;;23.88;13.85;;;2.80;99.90;;;;;;5035381;28;20029;-77
2022/03/16 01:29:28;;;;;;;24.73;13.73;;;2.70;99.90;;;;;;5035557;28;20021;-77
2022/03/16 01:31:54;;;;;;;26.63;14.75;;;2.80;99.90;;;;;;5035888;28;20488;-77
2022/03/16 01:34:22;;;;;;;26.20;14.38;;;2.80;99.90;;;;;;5054374;28;20042;-78
2022/03/16 01:36:48;;;;;;;26.33;14.73;;;2.80;99.90;;;;;;5035930;28;20476;-78
2022/03/16 01:39:15;;;;;;;24.02;14.20;;;2.80;99.90;;;;;;5053864;28;20036;-79
2022/03/16 01:41:42;;;;;;;22.75;13.77;;;2.80;99.90;;;;;;5035790;28;20040;-77
2022/03/16 01:44:08;;;;;;;23.67;13.35;;;2.70;99.90;;;;;;5027951;28;20128;-77
2022/03/16 01:46:34;;;;;;;19.42;12.05;;;2.60;99.90;;;;;;5033743;28;20112;-77
2022/03/16 01:48:59;;;;;;;22.15;12.80;;;2.50;99.90;;;;;;5033043;28;20068;-78
2022/03/16 01:51:25;;;;;;;22.10;13.95;;;2.40;99.90;;;;;;5015699;28;20116;-79
2022/03/16 01:53:51;;;;;;;24.40;13.13;;;2.40;99.90;;;;;;5015968;28;20026;-78
2022/03/16 01:56:17;;;;;;;24.88;13.55;;;2.40;99.90;;;;;;5033578;28;20113;-77
2022/03/16 01:58:44;;;;;;;23.23;12.93;;;2.40;99.90;;;;;;5033000;28;20031;-78
2022/03/16 02:01:09;;;;;;;22.55;14.57;;;2.30;99.90;;;;;;5033127;28;20029;-77
2022/03/16 02:03:35;;;;;;;26.00;15.55;;;2.30;99.90;;;;;;5032706;28;20032;-77
2022/03/16 02:06:02;;;;;;;29.67;16.45;;;2.40;99.90;;;;;;5032930;28;20076;-78
2022/03/16 02:08:32;;;;;;;28.65;14.70;;;2.50;99.90;;;;;;5032621;28;20102;-78
2022/03/16 02:10:58;;;;;;;28.98;16.17;;;2.70;99.90;;;;;;5033323;28;20116;-78
2022/03/16 02:13:25;;;;;;;26.63;14.02;;;2.70;99.90;;;;;;5033799;28;20060;-78
2022/03/16 02:15:50;;;;;;;25.25;13.82;;;2.80;99.90;;;;;;5015736;28;20030;-76
2022/03/16 02:18:16;;;;;;;23.25;13.88;;;2.70;99.90;;;;;;5033324;28;20044;-76
2022/03/16 02:20:42;;;;;;;22.77;13.55;;;2.70;99.90;;;;;;5032633;28;20025;-78
2022/03/16 02:23:08;;;;;;;22.33;13.20;;;2.50;99.90;;;;;;5032873;28;20033;-78
2022/03/16 02:25:50;;;;;;;22.13;12.43;;;2.50;99.90;;;;;;5016102;28;20075;-78
2022/03/16 02:28:16;;;;;;;18.75;12.65;;;2.30;99.90;;;;;;5032507;28;20030;-77
2022/03/16 02:30:42;;;;;;;19.17;12.30;;;2.20;99.90;;;;;;5033118;28;20034;-77
2022/03/16 02:33:08;;;;;;;20.42;11.40;;;2.20;99.90;;;;;;5033095;28;20036;-76
2022/03/16 02:35:34;;;;;;;22.27;12.55;;;2.00;99.90;;;;;;5014825;28;20119;-76
2022/03/16 02:37:59;;;;;;;22.60;13.52;;;1.90;99.90;;;;;;5032258;28;20029;-77
2022/03/16 02:40:25;;;;;;;21.73;13.40;;;1.90;99.90;;;;;;5014851;28;20030;-76
2022/03/16 02:42:52;;;;;;;23.27;14.57;;;1.80;99.90;;;;;;5032207;28;20483;-78
2022/03/16 02:45:18;;;;;;;27.40;15.40;;;1.90;99.90;;;;;;5032861;28;20040;-77
2022/03/16 02:47:44;;;;;;;29.40;15.40;;;2.00;99.90;;;;;;5034664;28;20024;-77
2022/03/16 02:50:11;;;;;;;25.60;14.40;;;2.10;99.90;;;;;;5052149;28;20507;-77
2022/03/16 02:52:37;;;;;;;25.52;13.65;;;2.20;99.90;;;;;;5052227;28;20453;-77
2022/03/16 02:55:04;;;;;;;23.30;12.52;;;2.20;99.90;;;;;;5052356;28;20095;-79
2022/03/16 02:57:29;;;;;;;24.52;14.13;;;2.10;99.90;;;;;;5053176;28;20025;-76
2022/03/16 02:59:55;;;;;;;29.92;13.68;;;2.00;99.90;;;;;;5052931;28;20036;-77
2022/03/16 03:02:21;;;;;;;24.67;13.30;;;1.90;99.90;;;;;;5053349;28;20120;-77
2022/03/16 03:04:47;;;;;;;24.30;14.40;;;1.80;99.90;;;;;;5052423;28;20086;-77
2022/03/16 03:07:12;;;;;;;25.60;14.88;;;1.90;99.90;;;;;;5052764;28;20026;-78
2022/03/16 03:09:38;;;;;;;21.15;12.60;;;1.90;99.90;;;;;;5051805;28;20071;-76
2022/03/16 03:12:04;;;;;;;26.48;14.02;;;1.90;99.90;;;;;;5051814;28;20392;-77
2022/03/16 03:14:31;;;;;;;27.95;14.27;;;2.00;99.90;;;;;;5051407;28;20488;-76
2022/03/16 03:16:56;;;;;;;21.20;12.40;;;1.90;99.90;;;;;;5052294;28;20025;-76
2022/03/16 03:19:22;;;;;;;21.20;11.93;;;1.90;99.90;;;;;;5052006;28;20052;-76
2022/03/16 03:21:48;;;;;;;21.98;13.25;;;1.70;99.90;;;;;;5037861;28;20120;-75
2022/03/16 03:24:13;;;;;;;23.15;12.77;;;1.70;99.90;;;;;;5055634;28;20040;-77
2022/03/16 03:26:41;;;;;;;21.13;12.38;;;1.70;99.90;;;;;;5037639;28;20162;-77
2022/03/16 03:29:07;;;;;;;20.60;12.35;;;1.60;99.90;;;;;;5058234;28;20062;-77
2022/03/16 03:31:34;;;;;;;25.65;13.98;;;1.50;99.90;;;;;;5040450;28;20036;-76
2022/03/16 03:34:00;;;;;;;22.05;13.00;;;1.50;99.90;;;;;;5038537;28;20033;-77
2022/03/16 03:36:25;;;;;;;23.35;13.20;;;1.40;99.90;;;;;;5056499;28;20025;-77
2022/03/16 03:38:51;;;;;;;24.73;13.27;;;1.30;99.90;;;;;;5037969;28;20025;-77
2022/03/16 03:41:17;;;;;;;25.80;14.00;;;1.40;99.90;;;;;;5055481;28;20064;-76
2022/03/16 03:43:42;;;;;;;23.48;14.23;;;1.30;99.90;;;;;;5032550;28;20025;-76
2022/03/16 03:46:08;;;;;;;23.02;12.45;;;1.40;99.90;;;;;;5035820;28;20333;-77
2022/03/16 03:48:33;;;;;;;22.67;13.70;;;1.40;99.90;;;;;;5035131;28;20040;-76
2022/03/16 03:50:59;;;;;;;24.10;12.43;;;1.50;99.90;;;;;;5038073;28;20029;-75
2022/03/16 03:53:25;;;;;;;20.85;12.73;;;1.50;99.90;;;;;;5037687;28;20052;-76
2022/03/16 03:55:50;;;;;;;21.27;12.48;;;1.40;99.90;;;;;;5037342;28;20022;-79
2022/03/16 03:58:16;;;;;;;19.90;11.88;;;1.40;99.90;;;;;;5036365;28;20021;-77
2022/03/16 04:00:41;;;;;;;19.67;12.60;;;1.40;99.90;;;;;;5018423;28;20029;-77
2022/03/16 04:03:07;;;;;;;19.00;11.98;;;1.30;99.90;;;;;;5036113;28;20044;-79
2022/03/16 04:05:33;;;;;;;21.85;12.30;;;1.20;99.90;;;;;;5037033;28;20033;-77
2022/03/16 04:07:59;;;;;;;18.50;10.82;;;1.20;99.90;;;;;;5019199;28;20443;-77
2022/03/16 04:10:24;;;;;;;18.88;11.38;;;1.10;99.90;;;;;;5036674;28;20414;-78
2022/03/16 04:12:50;;;;;;;24.30;12.40;;;1.10;99.90;;;;;;5020342;28;20045;-76
2022/03/16 04:15:20;;;;;;;22.00;12.02;;;1.10;99.90;;;;;;5052992;28;20077;-77
2022/03/16 04:17:45;;;;;;;24.08;11.82;;;1.10;99.90;;;;;;5052318;28;20036;-77
2022/03/16 04:20:11;;;;;;;16.27;10.75;;;1.10;99.90;;;;;;5019657;28;20029;-76
2022/03/16 04:22:37;;;;;;;19.42;11.40;;;0.90;99.90;;;;;;5035008;28;20029;-77
2022/03/16 04:25:04;;;;;;;19.52;12.25;;;0.80;99.90;;;;;;5035322;28;20060;-76
2022/03/16 04:27:29;;;;;;;24.45;10.70;;;0.70;99.90;;;;;;5035597;28;20103;-76
2022/03/16 04:29:58;;;;;;;22.05;12.13;;;0.70;99.90;;;;;;5037320;28;20033;-77
2022/03/16 04:32:24;;;;;;;24.75;12.80;;;0.60;99.90;;;;;;5037638;28;20052;-78
2022/03/16 04:34:49;;;;;;;25.75;12.95;;;0.70;99.90;;;;;;5035200;28;20025;-76
2022/03/16 04:37:15;;;;;;;22.27;13.07;;;0.70;99.90;;;;;;5035712;28;20053;-78
2022/03/16 04:39:41;;;;;;;23.02;12.95;;;0.80;99.90;;;;;;5017396;28;20043;-79
2022/03/16 04:42:07;;;;;;;22.80;11.93;;;0.70;99.90;;;;;;5035026;28;20381;-76
2022/03/16 04:44:32;;;;;;;20.67;12.68;;;0.70;99.90;;;;;;5046104;28;20036;-77
2022/03/16 04:46:58;;;;;;;25.10;12.40;;;0.70;99.90;;;;;;5055023;28;20049;-77
2022/03/16 04:49:23;;;;;;;25.50;13.40;;;0.70;99.90;;;;;;5054555;28;20366;-76
2022/03/16 04:51:49;;;;;;;26.67;14.30;;;0.80;99.90;;;;;;5036808;28;20036;-78
2022/03/16 04:54:16;;;;;;;26.58;13.43;;;0.80;99.90;;;;;;5055153;28;20037;-77
2022/03/16 04:56:42;;;;;;;20.17;12.50;;;0.80;99.90;;;;;;5054466;28;20083;-77
2022/03/16 04:59:08;;;;;;;18.75;11.18;;;0.90;99.90;;;;;;5055043;28;20025;-77
2022/03/16 05:01:34;;;;;;;22.60;13.10;;;0.80;99.90;;;;;;5036249;28;20029;-77
2022/03/16 05:04:00;;;;;;;24.45;12.85;;;0.80;99.90;;;;;;5055876;28;20025;-77
2022/03/16 05:06:25;;;;;;;23.52;12.95;;;0.80;99.90;;;;;;5055697;28;20060;-76
2022/03/16 05:08:51;;;;;;;24.10;13.13;;;0.80;99.90;;;;;;5054797;28;20025;-77
2022/03/16 05:11:20;;;;;;;22.77;12.85;;;0.80;99.90;;;;;;5055195;28;20028;-76
2022/03/16 05:13:46;;;;;;;23.13;12.93;;;0.80;99.90;;;;;;5037115;28;20452;-75
2022/03/16 05:16:11;;;;;;;24.00;13.45;;;0.90;99.90;;;;;;5054155;28;20048;-76
2022/03/16 05:18:40;;;;;;;19.33;11.45;;;0.80;99.90;;;;;;5035600;28;20495;-76
2022/03/16 05:21:09;;;;;;;24.30;12.77;;;0.80;99.90;;;;;;5054031;28;20051;-78
2022/03/16 05:23:36;;;;;;;22.80;13.45;;;0.80;99.90;;;;;;5055798;28;20086;-76
2022/03/16 05:26:02;;;;;;;21.77;11.90;;;0.80;99.90;;;;;;5055814;28;20021;-77
2022/03/16 05:28:29;;;;;;;22.35;11.82;;;0.70;99.90;;;;;;5054006;28;20108;-76
2022/03/16 05:30:54;;;;;;;22.92;13.25;;;0.70;99.90;;;;;;5036146;28;20586;-77
2022/03/16 05:33:21;;;;;;;25.83;13.82;;;0.70;99.90;;;;;;5053570;28;20025;-77
2022/03/16 05:35:47;;;;;;;27.08;14.02;;;0.70;99.90;;;;;;5053375;28;20021;-77
2022/03/16 05:38:12;;;;;;;28.33;14.70;;;0.80;99.90;;;;;;5054062;28;20031;-78
2022/03/16 05:40:40;;;;;;;24.80;14.23;;;0.90;99.90;;;;;;5054028;28;20032;-77
2022/03/16 05:43:06;;;;;;;27.65;15.55;;;1.00;99.90;;;;;;5034983;28;20029;-76
2022/03/16 05:45:32;;;;;;;28.40;15.00;;;1.00;99.90;;;;;;5015871;28;20049;-76
2022/03/16 05:47:58;;;;;;;27.15;14.52;;;1.10;99.90;;;;;;5033416;28;20401;-77
2022/03/16 05:50:29;;;;;;;25.55;13.90;;;1.10;99.90;;;;;;5015923;28;20026;-78
2022/03/16 05:53:00;;;;;;;25.70;14.35;;;1.20;99.90;;;;;;5015582;28;20030;-79
2022/03/16 05:55:27;;;;;;;27.55;14.02;;;1.20;99.90;;;;;;5032756;28;20026;-78
2022/03/16 05:57:53;;;;;;;35.60;15.40;;;1.20;99.90;;;;;;5033681;28;20090;-78
2022/03/16 06:00:20;;;;;;;27.33;15.00;;;1.20;99.90;;;;;;5033814;28;20072;-78
2022/03/16 06:02:47;;;;;;;35.35;16.23;;;1.40;99.90;;;;;;5034478;28;20033;-77
2022/03/16 06:05:14;;;;;;;33.45;16.15;;;1.70;99.90;;;;;;5033459;28;20021;-78
2022/03/16 06:07:40;;;;;;;27.83;13.90;;;1.90;99.90;;;;;;5032754;28;20113;-76
2022/03/16 06:10:08;;;;;;;23.83;13.48;;;1.90;99.90;;;;;;5056142;22;20519;-79
2022/03/16 06:12:34;;;;;;;26.85;12.55;;;1.80;99.90;;;;;;5039830;28;20025;-77
2022/03/16 06:14:59;;;;;;;25.10;14.55;;;1.70;99.90;;;;;;5039243;28;20025;-77
2022/03/16 06:17:25;;;;;;;23.77;12.57;;;1.60;99.90;;;;;;5023089;28;20025;-78
2022/03/16 06:19:50;;;;;;;25.33;13.55;;;1.60;99.90;;;;;;5041047;28;20091;-80
2022/03/16 06:22:16;;;;;;;24.30;12.57;;;1.50;99.90;;;;;;5041050;28;20045;-79
2022/03/16 06:24:42;;;;;;;22.02;12.02;;;1.60;99.90;;;;;;5022723;28;20034;-77
2022/03/16 06:27:07;;;;;;;28.73;13.70;;;1.60;99.90;;;;;;5041159;28;20040;-78
2022/03/16 06:29:33;;;;;;;29.65;14.65;;;1.70;99.90;;;;;;5021968;28;20120;-79
2022/03/16 06:31:58;;;;;;;33.65;15.48;;;2.10;99.90;;;;;;5038682;28;20135;-77
2022/03/16 06:34:24;;;;;;;33.60;17.20;;;2.50;99.90;;;;;;5019177;28;20049;-78
2022/03/16 06:36:49;;;;;;;33.38;17.05;;;2.80;99.90;;;;;;5021370;28;20036;-78
2022/03/16 06:39:15;;;;;;;31.95;16.35;;;3.00;99.90;;;;;;5046595;28;20029;-75
2022/03/16 06:41:42;;;;;;;32.88;16.25;;;3.20;99.90;;;;;;5035290;28;20097;-76
2022/03/16 06:44:08;;;;;;;30.92;15.60;;;3.40;99.90;;;;;;5039125;28;20032;-76
2022/03/16 06:46:33;;;;;;;26.75;14.23;;;3.50;99.90;;;;;;5056768;28;20070;-78
2022/03/16 06:48:59;;;;;;;28.80;13.45;;;3.70;99.90;;;;;;5057760;28;20057;-77
2022/03/16 06:51:24;;;;;;;24.42;12.25;;;3.90;99.90;;;;;;5040035;28;20029;-78
2022/03/16 06:53:50;;;;;;;21.95;12.40;;;4.20;99.90;;;;;;5060624;28;20052;-77
2022/03/16 06:56:15;;;;;;;19.63;11.38;;;4.40;99.90;;;;;;5063029;28;20026;-79
2022/03/16 06:58:41;;;;;;;21.00;11.38;;;4.50;99.90;;;;;;5044567;28;20116;-78
2022/03/16 07:01:07;;;;;;;18.25;11.57;;;4.70;99.90;;;;;;5061661;28;20141;-75
2022/03/16 07:03:32;;;;;;;17.77;11.15;;;5.00;99.90;;;;;;5060696;28;20033;-76
2022/03/16 07:05:58;;;;;;;19.38;10.82;;;5.20;99.90;;;;;;5061522;28;20025;-77
2022/03/16 07:08:23;;;;;;;15.02;9.50;;;5.50;99.90;;;;;;5061219;28;20035;-79
2022/03/16 07:10:49;;;;;;;15.25;9.93;;;5.80;99.90;;;;;;5043512;28;20040;-78
2022/03/16 07:13:15;;;;;;;16.23;10.05;;;6.00;99.90;;;;;;5061734;28;20025;-78
2022/03/16 07:15:42;;;;;;;15.55;9.90;;;6.10;99.90;;;;;;5061076;28;20021;-79
2022/03/16 07:18:09;;;;;;;17.38;9.55;;;6.20;99.90;;;;;;5060562;28;20435;-77
2022/03/16 07:20:35;;;;;;;16.90;9.60;;;6.40;99.90;;;;;;5045320;28;20021;-78
2022/03/16 07:23:05;;;;;;;16.98;10.02;;;6.50;99.90;;;;;;5064703;28;20017;-77
2022/03/16 07:25:31;;;;;;;16.40;9.10;;;6.70;99.90;;;;;;5045805;28;20480;-79
2022/03/16 07:27:56;;;;;;;15.95;9.60;;;6.90;99.90;;;;;;5064715;28;20051;-79
2022/03/16 07:30:22;;;;;;;17.58;8.75;;;7.10;99.90;;;;;;5062682;28;20032;-78
2022/03/16 07:32:48;;;;;;;14.57;9.10;;;7.20;99.90;;;;;;5063305;28;20052;-78
2022/03/16 07:35:14;;;;;;;14.10;9.00;;;7.40;99.90;;;;;;5061546;28;20143;-76
2022/03/16 07:37:42;;;;;;;22.33;10.45;;;7.50;99.90;;;;;;5043737;28;20029;-77
2022/03/16 07:40:08;;;;;;;13.93;9.18;;;7.80;99.90;;;;;;5045339;28;20025;-76
2022/03/16 07:42:34;;;;;;;17.13;9.45;;;8.00;99.90;;;;;;5062432;28;20383;-78
2022/03/16 07:45:00;;;;;;;15.50;9.77;;;8.30;99.90;;;;;;5045164;28;20057;-78
2022/03/16 07:47:25;;;;;;;15.43;8.73;;;8.50;99.90;;;;;;5023207;28;20477;-79
2022/03/16 07:49:57;;;;;;;15.88;9.82;;;8.60;99.90;;;;;;5042389;28;20025;-79
2022/03/16 07:52:26;;;;;;;13.82;8.80;;;8.80;99.90;;;;;;5040989;28;20047;-78
2022/03/16 07:54:51;;;;;;;14.70;9.20;;;8.90;99.90;;;;;;5042004;28;20044;-77
2022/03/16 07:57:17;;;;;;;14.25;8.68;;;9.10;99.90;;;;;;5041561;28;20025;-78
2022/03/16 07:59:43;;;;;;;13.07;8.25;;;9.20;99.90;;;;;;5041107;28;20032;-77
2022/03/16 08:02:10;;;;;;;15.70;9.32;;;9.30;99.90;;;;;;5040997;28;20029;-78
2022/03/16 08:04:35;;;;;;;13.88;8.90;;;9.40;99.90;;;;;;5039142;28;20031;-77
2022/03/16 08:07:01;;;;;;;16.80;9.95;;;9.40;99.90;;;;;;5039515;28;20093;-76
2022/03/16 08:09:26;;;;;;;13.75;9.35;;;9.40;99.90;;;;;;5038651;28;20405;-77
2022/03/16 08:11:53;;;;;;;13.85;8.93;;;9.50;99.90;;;;;;5039505;28;20022;-78
2022/03/16 08:14:18;;;;;;;16.45;9.85;;;9.70;99.90;;;;;;5040096;28;20026;-77
2022/03/16 08:16:44;;;;;;;17.48;10.43;;;9.80;99.90;;;;;;5040379;28;20032;-78
2022/03/16 08:19:09;;;;;;;14.13;9.63;;;10.00;99.90;;;;;;5040654;28;20089;-77
2022/03/16 08:21:35;;;;;;;14.07;10.18;;;10.10;99.90;;;;;;5042452;28;20025;-78
2022/03/16 08:24:00;;;;;;;15.90;10.05;;;10.40;99.90;;;;;;5042860;28;20084;-77
2022/03/16 08:26:26;;;;;;;17.95;10.27;;;10.50;99.90;;;;;;5043161;28;20058;-77
2022/03/16 08:28:52;;;;;;;21.65;9.48;;;10.80;99.90;;;;;;5024041;28;20021;-78
2022/03/16 08:31:18;;;;;;;16.27;9.60;;;11.00;99.90;;;;;;5040918;28;20028;-77
2022/03/16 08:33:44;;;;;;;18.23;9.88;;;11.20;99.90;;;;;;5038826;28;20100;-76
2022/03/16 08:36:11;;;;;;;17.77;10.93;;;11.30;99.90;;;;;;5041882;28;20119;-79
2022/03/16 08:38:37;;;;;;;17.13;9.60;;;11.50;99.90;;;;;;5040311;28;20389;-78
2022/03/16 08:41:06;;;;;;;20.80;11.10;;;11.50;99.90;;;;;;5039704;28;20018;-75
2022/03/16 08:43:32;;;;;;;16.83;10.20;;;11.50;99.90;;;;;;5024049;28;20029;-78
2022/03/16 08:45:59;;;;;;;12.32;9.13;;;11.70;99.90;;;;;;5058973;28;20026;-77
2022/03/16 08:48:25;;;;;;;14.50;9.27;;;11.90;99.90;;;;;;5057617;28;20057;-79
2022/03/16 08:50:51;;;;;;;14.93;9.25;;;12.00;99.90;;;;;;5057487;28;20051;-77
2022/03/16 08:53:16;;;;;;;15.30;9.10;;;12.20;99.90;;;;;;5040963;28;20100;-77
2022/03/16 08:55:42;;;;;;;18.77;10.00;;;12.10;99.90;;;;;;5038935;28;20021;-79
2022/03/16 08:58:08;;;;;;;17.10;10.27;;;12.30;99.90;;;;;;5039339;28;20393;-76
2022/03/16 09:00:33;;;;;;;16.80;9.70;;;12.30;99.90;;;;;;5056939;28;20028;-77
2022/03/16 09:03:00;;;;;;;15.48;8.98;;;12.50;99.90;;;;;;5041850;28;20029;-79
2022/03/16 09:05:26;;;;;;;15.65;10.40;;;12.50;99.90;;;;;;5059092;28;20346;-78
2022/03/16 09:07:51;;;;;;;15.00;9.85;;;12.60;99.90;;;;;;5040142;28;20033;-78
2022/03/16 09:10:17;;;;;;;12.13;9.63;;;13.00;99.90;;;;;;5040716;28;20471;-79
2022/03/16 09:12:43;;;;;;;14.75;9.48;;;13.40;99.90;;;;;;5058866;28;20546;-79
2022/03/16 09:15:09;;;;;;;15.85;8.93;;;13.50;99.90;;;;;;5058303;28;20397;-77
2022/03/16 09:17:35;;;;;;;11.70;8.93;;;13.80;99.90;;;;;;5057326;28;20043;-78
2022/03/16 09:20:01;;;;;;;14.38;8.70;;;13.60;99.90;;;;;;5057375;28;20025;-77
2022/03/16 09:22:27;;;;;;;15.45;9.52;;;13.50;99.90;;;;;;5059030;28;20028;-78
2022/03/16 09:24:53;;;;;;;13.55;9.52;;;13.40;99.90;;;;;;5038820;28;20025;-78
2022/03/16 09:27:19;;;;;;;13.63;9.90;;;13.30;99.90;;;;;;5039323;28;20108;-77
2022/03/16 09:29:46;;;;;;;13.48;9.55;;;13.50;99.90;;;;;;5056753;28;20045;-76
2022/03/16 09:32:13;;;;;;;17.02;10.45;;;13.20;99.90;;;;;;5056128;28;20048;-75
2022/03/16 09:34:40;;;;;;;15.90;10.05;;;13.00;99.90;;;;;;5059182;28;20546;-75
2022/03/16 09:37:07;;;;;;;17.33;9.57;;;13.20;99.90;;;;;;5055395;28;20021;-76
2022/03/16 09:39:34;;;;;;;12.90;9.25;;;13.60;99.90;;;;;;5055179;28;20017;-76
2022/03/16 09:42:00;;;;;;;14.05;9.55;;;13.90;99.90;;;;;;5037908;28;20025;-78
2022/03/16 09:44:28;;;;;;;12.82;9.35;;;13.70;99.90;;;;;;5046321;28;20073;-76
2022/03/16 09:46:54;;;;;;;15.20;9.48;;;13.60;99.90;;;;;;5038450;28;20048;-78
2022/03/16 09:49:20;;;;;;;15.65;9.30;;;13.20;99.90;;;;;;5038851;28;20099;-78
2022/03/16 09:51:46;;;;;;;13.40;8.88;;;13.00;99.90;;;;;;5022154;28;20390;-78
2022/03/16 09:54:11;;;;;;;18.85;10.52;;;13.00;99.90;;;;;;5040099;28;20100;-78
2022/03/16 09:56:38;;;;;;;18.90;10.55;;;12.90;99.90;;;;;;5036149;28;20514;-78
2022/03/16 09:59:05;;;;;;;15.52;10.25;;;12.80;99.90;;;;;;5038238;28;20013;-78
2022/03/16 10:01:34;;;;;;;15.60;9.63;;;12.80;99.90;;;;;;5038746;28;20032;-78
2022/03/16 10:04:05;;;;;;;15.25;9.15;;;12.80;99.90;;;;;;5019751;28;20044;-79
2022/03/16 10:06:31;;;;;;;14.15;8.52;;;12.70;99.90;;;;;;5038549;28;20021;-78
2022/03/16 10:14:26;;;;;;;12.93;7.38;;;12.90;99.90;;;;;;5036854;28;20444;-77
2022/03/16 10:19:54;;;;;;;12.90;7.03;;;13.70;99.90;;;;;;5039276;28;20056;-77
2022/03/16 10:22:25;;;;;;;12.82;7.28;;;14.00;99.90;;;;;;5020135;28;20435;-77
2022/03/16 10:24:54;;;;;;;11.18;6.38;;;14.40;99.50;;;;;;5036257;28;20026;-77
2022/03/16 10:27:21;;;;;;;10.02;6.75;;;14.50;94.90;;;;;;5037384;28;20032;-78
2022/03/16 10:29:50;;;;;;;11.07;6.45;;;14.70;96.40;;;;;;5037037;28;20075;-77
2022/03/16 10:32:16;;;;;;;13.70;7.40;;;14.50;91.90;;;;;;5018044;28;20029;-79
2022/03/16 10:34:52;;;;;;;12.07;7.13;;;14.60;92.80;;;;;;5019767;28;20041;-78
2022/03/16 10:37:20;;;;;;;12.18;6.93;;;14.40;90.90;;;;;;5038561;28;20157;-78
2022/03/16 10:39:48;;;;;;;12.57;6.85;;;14.40;92.40;;;;;;5037183;28;20018;-78
2022/03/16 10:47:59;;;;;;;7.72;5.72;;;15.00;85.50;;;;;;5074347;28;20100;-76
2022/03/16 10:50:26;;;;;;;7.97;5.72;;;15.30;83.50;;;;;;5045161;28;20055;-78
2022/03/16 10:52:53;;;;;;;7.15;5.75;;;15.30;81.60;;;;;;5059345;28;20029;-78
2022/03/16 10:55:22;;;;;;;9.75;6.68;;;15.30;79.60;;;;;;5057514;28;20032;-76
2022/03/16 10:57:49;;;;;;;10.65;6.40;;;15.40;81.20;;;;;;5057287;28;20091;-77
2022/03/16 11:00:17;;;;;;;12.07;6.65;;;15.30;80.20;;;;;;5058405;28;20040;-77
2022/03/16 11:02:45;;;;;;;9.55;6.78;;;15.30;79.70;;;;;;5057815;28;20017;-79
2022/03/16 11:05:11;;;;;;;9.77;6.97;;;15.10;81.90;;;;;;5057518;28;20147;-78
2022/03/16 11:07:38;;;;;;;12.43;7.95;;;15.20;83.80;;;;;;5055788;28;20139;-78
2022/03/16 11:10:06;;;;;;;10.65;6.95;;;15.20;82.20;;;;;;5055403;28;20499;-78
2022/03/16 11:15:18;;;;;;;11.70;7.20;;;15.20;90.10;;;;;;5055629;28;20421;-77
2022/03/16 11:17:44;;;;;;;10.13;7.13;;;15.40;81.70;;;;;;5058089;28;20025;-78
2022/03/16 11:20:11;;;;;;;8.48;6.43;;;15.60;79.00;;;;;;5058868;28;20055;-77
2022/03/16 11:25:57;;;;;;;8.77;6.72;;;15.70;79.20;;;;;;5059343;28;20044;-78
2022/03/16 11:28:37;;;;;;;12.05;7.32;;;15.60;79.00;;;;;;5057053;28;20036;-77
2022/03/16 11:31:09;;;;;;;8.57;6.90;;;15.30;78.50;;;;;;5055845;28;20029;-78
2022/03/16 11:33:48;;;;;;;9.27;6.55;;;15.30;81.10;;;;;;5059488;28;20025;-77
2022/03/16 11:36:45;;;;;;;9.90;6.60;;;15.60;79.60;;;;;;5057268;28;20029;-78
2022/03/16 11:39:20;;;;;;;11.63;7.05;;;15.70;78.40;;;;;;5058245;28;20439;-77
2022/03/16 11:41:55;;;;;;;11.73;6.65;;;15.70;75.90;;;;;;5060627;28;20020;-78
2022/03/16 11:44:28;;;;;;;9.63;6.50;;;15.60;76.10;;;;;;5033034;28;20029;-76
2022/03/16 11:47:09;;;;;;;9.27;6.30;;;15.30;74.60;;;;;;5039744;28;20036;-77
2022/03/16 11:49:38;;;;;;;10.48;6.80;;;15.30;74.90;;;;;;5039395;28;20057;-76
2022/03/16 11:52:06;;;;;;;10.95;6.60;;;15.40;74.60;;;;;;5038916;28;20029;-77
2022/03/16 11:54:51;;;;;;;8.25;5.60;;;15.50;75.40;;;;;;5038016;28;20036;-76
2022/03/16 11:57:50;;;;;;;9.05;5.90;;;15.50;73.00;;;;;;5037504;28;20540;-76
2022/03/16 12:00:17;;;;;;;6.90;5.60;;;15.70;73.30;;;;;;5039190;28;20515;-77
2022/03/16 12:02:51;;;;;;;10.10;5.90;;;15.60;72.90;;;;;;5018169;28;20057;-78
2022/03/16 12:05:20;;;;;;;9.65;6.43;;;15.80;75.40;;;;;;5037153;28;20022;-77
2022/03/16 12:07:46;;;;;;;10.23;6.50;;;15.70;73.00;;;;;;5038899;28;20049;-78
2022/03/16 12:10:15;;;;;;;8.95;5.93;;;15.90;72.40;;;;;;5039625;28;20034;-78
2022/03/16 12:12:51;;;;;;;9.60;6.18;;;15.90;71.50;;;;;;5038912;28;20025;-79
2022/03/16 12:15:26;;;;;;;8.68;5.95;;;16.00;71.70;;;;;;5039991;28;20041;-78
2022/03/16 12:17:51;;;;;;;11.10;5.68;;;16.40;71.00;;;;;;5040538;28;20025;-77
2022/03/16 12:20:25;;;;;;;11.00;6.53;;;16.50;70.20;;;;;;5039777;28;20029;-76
2022/03/16 12:23:00;;;;;;;8.63;6.38;;;16.50;69.20;;;;;;5036408;28;20022;-76
2022/03/16 12:25:29;;;;;;;9.23;6.82;;;16.70;70.00;;;;;;5036211;28;20535;-76
2022/03/16 12:30:46;;;;;;;8.75;5.90;;;16.10;69.10;;;;;;5038715;28;20515;-77
2022/03/16 12:33:19;;;;;;;9.38;6.00;;;16.10;68.30;;;;;;5039534;28;20021;-78
2022/03/16 12:35:45;;;;;;;8.90;6.05;;;16.10;68.00;;;;;;5040175;28;20018;-78
2022/03/16 12:38:11;;;;;;;8.70;6.30;;;16.20;70.20;;;;;;5038960;28;20489;-78
2022/03/16 12:42:31;;;;;;;9.30;6.75;;;16.40;69.40;;;;;;5040582;28;20035;-77
2022/03/16 12:43:27;;;;;;;11.13;7.07;;;16.40;69.60;;;;;;5043369;28;20067;-77
2022/03/16 12:46:05;;;;;;;8.57;6.25;;;16.30;69.40;;;;;;5039137;28;20028;-75
2022/03/16 12:48:35;;;;;;;9.18;6.60;;;16.30;70.10;;;;;;5057431;28;20032;-77
2022/03/16 12:51:01;;;;;;;8.50;6.38;;;16.40;68.90;;;;;;5041330;28;20021;-77
2022/03/16 12:53:45;;;;;;;7.72;5.80;;;16.50;69.10;;;;;;5060176;28;20025;-78
2022/03/16 12:56:20;;;;;;;12.52;7.38;;;16.80;68.00;;;;;;5058179;28;20096;-77
2022/03/16 12:58:53;;;;;;;7.95;6.15;;;16.80;66.50;;;;;;5037846;28;20013;-78
2022/03/16 13:01:19;;;;;;;8.82;6.03;;;16.60;67.10;;;;;;5059809;28;20021;-76